sensor_id;sensor_type;location;lat;lon;timestamp;temperature;humidity
43043;DHT22;28667;50.758;6.096;2023-03-30T00:02:22;13.40;99.90
43043;DHT22;28667;50.758;6.096;2023-03-30T00:04:57;13.40;99.90
43043;DHT22;28667;50.758;6.096;2023-03-30T00:07:34;13.40;99.90
43043;DHT22;28667;50.758;6.096;2023-03-30T00:10:03;13.50;99.90
43043;DHT22;28667;50.758;6.096;2023-03-30T00:12:36;13.60;99.90
43043;DHT22;28667;50.758;6.096;2023-03-30T00:15:08;13.60;99.90
43043;DHT22;28667;50.758;6.096;2023-03-30T00:17:38;13.60;99.90
43043;DHT22;28667;50.758;6.096;2023-03-30T00:20:13;13.60;99.90
43043;DHT22;28667;50.758;6.096;2023-03-30T00:22:44;13.60;99.90
43043;DHT22;28667;50.758;6.096;2023-03-30T00:25:25;13.70;99.90
43043;DHT22;28667;50.758;6.096;2023-03-30T00:27:59;13.70;99.90
43043;DHT22;28667;50.758;6.096;2023-03-30T00:30:29;13.70;99.90
43043;DHT22;28667;50.758;6.096;2023-03-30T00:33:05;13.80;99.90
43043;DHT22;28667;50.758;6.096;2023-03-30T00:35:34;13.80;99.90
43043;DHT22;28667;50.758;6.096;2023-03-30T00:38:03;13.80;99.90
43043;DHT22;28667;50.758;6.096;2023-03-30T00:40:38;13.70;99.90
43043;DHT22;28667;50.758;6.096;2023-03-30T00:43:29;13.70;99.90
43043;DHT22;28667;50.758;6.096;2023-03-30T00:46:02;13.70;99.90
43043;DHT22;28667;50.758;6.096;2023-03-30T00:48:43;13.70;99.90
43043;DHT22;28667;50.758;6.096;2023-03-30T00:51:17;13.80;99.90
43043;DHT22;28667;50.758;6.096;2023-03-30T00:53:56;14.00;99.90
43043;DHT22;28667;50.758;6.096;2023-03-30T00:56:30;14.10;99.90
43043;DHT22;28667;50.758;6.096;2023-03-30T00:59:01;14.20;99.90
43043;DHT22;28667;50.758;6.096;2023-03-30T01:01:39;14.30;99.90
43043;DHT22;28667;50.758;6.096;2023-03-30T01:04:23;14.40;99.90
43043;DHT22;28667;50.758;6.096;2023-03-30T01:06:53;14.40;99.90
43043;DHT22;28667;50.758;6.096;2023-03-30T01:09:32;14.40;99.90
43043;DHT22;28667;50.758;6.096;2023-03-30T01:12:03;14.40;99.90
43043;DHT22;28667;50.758;6.096;2023-03-30T01:14:44;14.50;99.90
43043;DHT22;28667;50.758;6.096;2023-03-30T01:17:25;14.60;99.90
43043;DHT22;28667;50.758;6.096;2023-03-30T01:26:00;14.70;99.90
43043;DHT22;28667;50.758;6.096;2023-03-30T01:28:45;14.80;99.90
43043;DHT22;28667;50.758;6.096;2023-03-30T01:34:41;14.90;99.90
43043;DHT22;28667;50.758;6.096;2023-03-30T01:39:55;14.80;99.90
43043;DHT22;28667;50.758;6.096;2023-03-30T01:47:51;14.90;99.90
43043;DHT22;28667;50.758;6.096;2023-03-30T01:50:49;15.00;99.90
43043;DHT22;28667;50.758;6.096;2023-03-30T01:53:17;15.00;99.90
43043;DHT22;28667;50.758;6.096;2023-03-30T01:55:56;15.00;99.90
43043;DHT22;28667;50.758;6.096;2023-03-30T01:58:58;15.00;99.90
43043;DHT22;28667;50.758;6.096;2023-03-30T02:01:40;14.90;99.90
43043;DHT22;28667;50.758;6.096;2023-03-30T02:04:11;14.90;99.90
43043;DHT22;28667;50.758;6.096;2023-03-30T02:06:53;14.90;99.90
43043;DHT22;28667;50.758;6.096;2023-03-30T02:09:39;14.80;99.90
43043;DHT22;28667;50.758;6.096;2023-03-30T02:12:18;14.80;99.90
43043;DHT22;28667;50.758;6.096;2023-03-30T02:14:56;14.80;99.90
43043;DHT22;28667;50.758;6.096;2023-03-30T02:17:34;14.60;99.90
43043;DHT22;28667;50.758;6.096;2023-03-30T02:20:13;14.50;99.90
43043;DHT22;28667;50.758;6.096;2023-03-30T02:22:45;14.40;99.90
43043;DHT22;28667;50.758;6.096;2023-03-30T02:25:25;14.30;99.90
43043;DHT22;28667;50.758;6.096;2023-03-30T02:27:57;14.20;99.90
43043;DHT22;28667;50.758;6.096;2023-03-30T02:30:43;14.20;99.90
43043;DHT22;28667;50.758;6.096;2023-03-30T02:43:08;13.80;99.90
43043;DHT22;28667;50.758;6.096;2023-03-30T02:45:39;13.80;99.90
43043;DHT22;28667;50.758;6.096;2023-03-30T02:48:32;13.80;99.90
43043;DHT22;28667;50.758;6.096;2023-03-30T02:51:45;13.70;99.90
43043;DHT22;28667;50.758;6.096;2023-03-30T02:57:58;13.60;99.90
43043;DHT22;28667;50.758;6.096;2023-03-30T03:01:03;13.60;99.90
43043;DHT22;28667;50.758;6.096;2023-03-30T03:03:44;13.60;99.90
43043;DHT22;28667;50.758;6.096;2023-03-30T03:06:28;13.60;99.90
43043;DHT22;28667;50.758;6.096;2023-03-30T03:09:08;13.50;99.90
43043;DHT22;28667;50.758;6.096;2023-03-30T03:11:43;13.40;99.90
43043;DHT22;28667;50.758;6.096;2023-03-30T03:14:11;13.40;99.90
43043;DHT22;28667;50.758;6.096;2023-03-30T03:16:42;13.40;99.90
43043;DHT22;28667;50.758;6.096;2023-03-30T03:19:35;13.40;99.90
43043;DHT22;28667;50.758;6.096;2023-03-30T03:22:25;13.40;99.90
43043;DHT22;28667;50.758;6.096;2023-03-30T03:25:05;13.50;99.90
43043;DHT22;28667;50.758;6.096;2023-03-30T03:27:55;13.40;99.90
43043;DHT22;28667;50.758;6.096;2023-03-30T03:30:35;13.50;99.90
43043;DHT22;28667;50.758;6.096;2023-03-30T03:33:09;13.50;99.90
43043;DHT22;28667;50.758;6.096;2023-03-30T03:35:59;13.50;99.90
43043;DHT22;28667;50.758;6.096;2023-03-30T03:38:36;13.40;99.90
43043;DHT22;28667;50.758;6.096;2023-03-30T03:41:11;13.50;99.90
43043;DHT22;28667;50.758;6.096;2023-03-30T03:43:54;13.50;99.90
43043;DHT22;28667;50.758;6.096;2023-03-30T03:46:23;13.40;99.90
43043;DHT22;28667;50.758;6.096;2023-03-30T03:48:52;13.40;99.90
43043;DHT22;28667;50.758;6.096;2023-03-30T03:51:24;13.40;99.90
43043;DHT22;28667;50.758;6.096;2023-03-30T03:54:03;13.40;99.90
43043;DHT22;28667;50.758;6.096;2023-03-30T03:57:16;13.40;99.90
43043;DHT22;28667;50.758;6.096;2023-03-30T03:59:43;13.40;99.90
43043;DHT22;28667;50.758;6.096;2023-03-30T04:02:17;13.30;99.90
43043;DHT22;28667;50.758;6.096;2023-03-30T04:05:08;13.30;99.90
43043;DHT22;28667;50.758;6.096;2023-03-30T04:07:36;13.20;99.90
43043;DHT22;28667;50.758;6.096;2023-03-30T04:10:05;13.20;99.90
43043;DHT22;28667;50.758;6.096;2023-03-30T04:13:12;13.20;99.90
43043;DHT22;28667;50.758;6.096;2023-03-30T04:16:06;13.20;99.90
43043;DHT22;28667;50.758;6.096;2023-03-30T04:18:57;13.20;99.90
43043;DHT22;28667;50.758;6.096;2023-03-30T04:21:54;13.30;99.90
43043;DHT22;28667;50.758;6.096;2023-03-30T04:24:58;13.50;99.90
43043;DHT22;28667;50.758;6.096;2023-03-30T04:28:07;13.50;99.90
43043;DHT22;28667;50.758;6.096;2023-03-30T04:31:04;13.50;99.90
43043;DHT22;28667;50.758;6.096;2023-03-30T04:34:12;13.60;99.90
43043;DHT22;28667;50.758;6.096;2023-03-30T04:37:05;13.70;99.90
43043;DHT22;28667;50.758;6.096;2023-03-30T04:40:17;13.70;99.90
43043;DHT22;28667;50.758;6.096;2023-03-30T04:43:08;13.80;99.90
43043;DHT22;28667;50.758;6.096;2023-03-30T04:46:07;13.80;99.90
43043;DHT22;28667;50.758;6.096;2023-03-30T04:48:52;13.90;99.90
43043;DHT22;28667;50.758;6.096;2023-03-30T04:52:01;13.90;99.90
43043;DHT22;28667;50.758;6.096;2023-03-30T04:54:55;13.90;99.90
43043;DHT22;28667;50.758;6.096;2023-03-30T04:57:55;13.90;99.90
43043;DHT22;28667;50.758;6.096;2023-03-30T05:01:05;13.90;99.90
43043;DHT22;28667;50.758;6.096;2023-03-30T05:03:50;13.90;99.90
43043;DHT22;28667;50.758;6.096;2023-03-30T05:06:40;13.90;99.90
43043;DHT22;28667;50.758;6.096;2023-03-30T05:09:25;13.80;99.90
43043;DHT22;28667;50.758;6.096;2023-03-30T05:12:19;13.80;99.90
43043;DHT22;28667;50.758;6.096;2023-03-30T05:14:55;13.70;99.90
43043;DHT22;28667;50.758;6.096;2023-03-30T05:17:41;13.70;99.90
43043;DHT22;28667;50.758;6.096;2023-03-30T05:20:25;13.60;99.90
43043;DHT22;28667;50.758;6.096;2023-03-30T05:23:31;13.60;99.90
43043;DHT22;28667;50.758;6.096;2023-03-30T05:26:22;13.50;99.90
43043;DHT22;28667;50.758;6.096;2023-03-30T05:29:13;13.50;99.90
43043;DHT22;28667;50.758;6.096;2023-03-30T05:32:22;13.50;99.90
43043;DHT22;28667;50.758;6.096;2023-03-30T05:35:23;13.50;99.90
43043;DHT22;28667;50.758;6.096;2023-03-30T05:38:09;13.50;99.90
43043;DHT22;28667;50.758;6.096;2023-03-30T05:44:35;13.60;99.90
43043;DHT22;28667;50.758;6.096;2023-03-30T05:47:26;13.50;99.90
43043;DHT22;28667;50.758;6.096;2023-03-30T05:50:31;13.60;99.90
43043;DHT22;28667;50.758;6.096;2023-03-30T05:53:08;13.50;99.90
43043;DHT22;28667;50.758;6.096;2023-03-30T05:56:08;13.50;99.90
43043;DHT22;28667;50.758;6.096;2023-03-30T05:58:51;13.60;99.90
43043;DHT22;28667;50.758;6.096;2023-03-30T06:01:45;13.50;99.90
43043;DHT22;28667;50.758;6.096;2023-03-30T06:04:13;13.50;99.90
43043;DHT22;28667;50.758;6.096;2023-03-30T06:06:46;13.50;99.90
43043;DHT22;28667;50.758;6.096;2023-03-30T06:09:25;13.40;99.90
43043;DHT22;28667;50.758;6.096;2023-03-30T06:12:10;13.40;99.90
43043;DHT22;28667;50.758;6.096;2023-03-30T06:14:45;13.30;99.90
43043;DHT22;28667;50.758;6.096;2023-03-30T06:17:34;13.40;99.90
43043;DHT22;28667;50.758;6.096;2023-03-30T06:20:05;13.30;99.90
43043;DHT22;28667;50.758;6.096;2023-03-30T06:22:43;13.40;99.90
43043;DHT22;28667;50.758;6.096;2023-03-30T06:25:20;13.50;99.90
43043;DHT22;28667;50.758;6.096;2023-03-30T06:27:58;13.70;99.90
43043;DHT22;28667;50.758;6.096;2023-03-30T06:30:47;13.80;99.90
43043;DHT22;28667;50.758;6.096;2023-03-30T06:33:21;13.80;99.90
43043;DHT22;28667;50.758;6.096;2023-03-30T06:36:01;13.90;99.90
43043;DHT22;28667;50.758;6.096;2023-03-30T06:38:37;13.90;99.90
43043;DHT22;28667;50.758;6.096;2023-03-30T06:41:33;13.80;99.90
43043;DHT22;28667;50.758;6.096;2023-03-30T06:44:07;13.80;99.90
43043;DHT22;28667;50.758;6.096;2023-03-30T06:46:41;13.80;99.90
43043;DHT22;28667;50.758;6.096;2023-03-30T06:49:14;13.80;99.90
43043;DHT22;28667;50.758;6.096;2023-03-30T06:51:45;13.90;99.90
43043;DHT22;28667;50.758;6.096;2023-03-30T06:54:19;13.90;99.90
43043;DHT22;28667;50.758;6.096;2023-03-30T06:56:54;13.90;99.90
43043;DHT22;28667;50.758;6.096;2023-03-30T06:59:41;13.90;99.90
43043;DHT22;28667;50.758;6.096;2023-03-30T07:02:31;13.90;99.90
43043;DHT22;28667;50.758;6.096;2023-03-30T07:05:14;13.90;99.90
43043;DHT22;28667;50.758;6.096;2023-03-30T07:07:51;13.80;99.90
43043;DHT22;28667;50.758;6.096;2023-03-30T07:10:19;13.80;99.90
43043;DHT22;28667;50.758;6.096;2023-03-30T07:12:48;13.80;99.90
43043;DHT22;28667;50.758;6.096;2023-03-30T07:15:14;13.70;99.90
43043;DHT22;28667;50.758;6.096;2023-03-30T07:17:44;13.70;99.90
43043;DHT22;28667;50.758;6.096;2023-03-30T07:20:16;13.80;99.90
43043;DHT22;28667;50.758;6.096;2023-03-30T07:23:05;13.80;99.90
43043;DHT22;28667;50.758;6.096;2023-03-30T07:25:35;13.80;99.90
43043;DHT22;28667;50.758;6.096;2023-03-30T07:28:12;13.70;99.90
43043;DHT22;28667;50.758;6.096;2023-03-30T07:30:49;13.80;99.90
43043;DHT22;28667;50.758;6.096;2023-03-30T07:33:28;13.80;99.90
43043;DHT22;28667;50.758;6.096;2023-03-30T07:35:58;13.80;99.90
43043;DHT22;28667;50.758;6.096;2023-03-30T07:41:26;13.90;99.90
43043;DHT22;28667;50.758;6.096;2023-03-30T07:44:12;14.00;99.90
43043;DHT22;28667;50.758;6.096;2023-03-30T07:46:41;14.10;99.90
43043;DHT22;28667;50.758;6.096;2023-03-30T07:49:13;14.20;99.90
43043;DHT22;28667;50.758;6.096;2023-03-30T07:51:54;14.40;99.90
43043;DHT22;28667;50.758;6.096;2023-03-30T07:54:53;14.50;99.90
43043;DHT22;28667;50.758;6.096;2023-03-30T07:57:30;14.60;99.90
43043;DHT22;28667;50.758;6.096;2023-03-30T07:59:59;14.70;99.90
43043;DHT22;28667;50.758;6.096;2023-03-30T08:02:51;14.80;99.90
43043;DHT22;28667;50.758;6.096;2023-03-30T08:05:22;14.90;99.90
43043;DHT22;28667;50.758;6.096;2023-03-30T08:08:15;15.00;99.90
43043;DHT22;28667;50.758;6.096;2023-03-30T08:10:49;14.90;99.90
43043;DHT22;28667;50.758;6.096;2023-03-30T08:13:15;14.80;99.90
43043;DHT22;28667;50.758;6.096;2023-03-30T08:15:44;14.60;99.90
43043;DHT22;28667;50.758;6.096;2023-03-30T08:18:22;14.40;99.90
43043;DHT22;28667;50.758;6.096;2023-03-30T08:20:51;14.30;99.90
43043;DHT22;28667;50.758;6.096;2023-03-30T08:23:20;14.10;99.90
43043;DHT22;28667;50.758;6.096;2023-03-30T08:25:48;14.10;99.90
43043;DHT22;28667;50.758;6.096;2023-03-30T08:28:22;14.00;99.90
43043;DHT22;28667;50.758;6.096;2023-03-30T08:30:55;14.00;99.90
43043;DHT22;28667;50.758;6.096;2023-03-30T08:33:35;14.00;99.90
43043;DHT22;28667;50.758;6.096;2023-03-30T08:36:05;14.00;99.90
43043;DHT22;28667;50.758;6.096;2023-03-30T08:38:45;14.00;99.90
43043;DHT22;28667;50.758;6.096;2023-03-30T08:44:22;13.90;99.90
43043;DHT22;28667;50.758;6.096;2023-03-30T08:47:50;14.00;99.90
43043;DHT22;28667;50.758;6.096;2023-03-30T08:50:45;14.10;99.90
43043;DHT22;28667;50.758;6.096;2023-03-30T08:53:15;14.20;99.90
43043;DHT22;28667;50.758;6.096;2023-03-30T08:56:15;14.30;99.90
43043;DHT22;28667;50.758;6.096;2023-03-30T09:04:50;14.20;99.90
43043;DHT22;28667;50.758;6.096;2023-03-30T09:07:40;13.50;99.90
43043;DHT22;28667;50.758;6.096;2023-03-30T09:11:01;12.80;99.90
43043;DHT22;28667;50.758;6.096;2023-03-30T09:13:49;12.10;99.90
43043;DHT22;28667;50.758;6.096;2023-03-30T09:16:54;11.80;99.90
43043;DHT22;28667;50.758;6.096;2023-03-30T09:19:35;11.40;99.90
43043;DHT22;28667;50.758;6.096;2023-03-30T09:22:25;11.10;99.90
43043;DHT22;28667;50.758;6.096;2023-03-30T09:25:19;10.80;99.90
43043;DHT22;28667;50.758;6.096;2023-03-30T09:34:44;10.00;99.90
43043;DHT22;28667;50.758;6.096;2023-03-30T09:37:20;10.00;99.90
43043;DHT22;28667;50.758;6.096;2023-03-30T09:39:51;9.90;99.90
43043;DHT22;28667;50.758;6.096;2023-03-30T09:45:36;10.30;99.90
43043;DHT22;28667;50.758;6.096;2023-03-30T09:48:08;10.50;99.90
43043;DHT22;28667;50.758;6.096;2023-03-30T09:50:42;10.70;99.90
43043;DHT22;28667;50.758;6.096;2023-03-30T09:53:31;11.00;99.90
43043;DHT22;28667;50.758;6.096;2023-03-30T09:56:27;11.10;99.90
43043;DHT22;28667;50.758;6.096;2023-03-30T09:58:55;11.30;99.90
43043;DHT22;28667;50.758;6.096;2023-03-30T10:01:22;11.40;99.90
43043;DHT22;28667;50.758;6.096;2023-03-30T10:04:13;11.50;99.90
43043;DHT22;28667;50.758;6.096;2023-03-30T10:06:53;11.60;99.90
43043;DHT22;28667;50.758;6.096;2023-03-30T10:09:25;11.70;99.90
43043;DHT22;28667;50.758;6.096;2023-03-30T10:11:53;11.90;99.90
43043;DHT22;28667;50.758;6.096;2023-03-30T10:14:42;12.00;99.90
43043;DHT22;28667;50.758;6.096;2023-03-30T10:17:23;12.00;99.90
43043;DHT22;28667;50.758;6.096;2023-03-30T10:22:52;12.00;99.90
43043;DHT22;28667;50.758;6.096;2023-03-30T10:25:25;12.00;99.90
43043;DHT22;28667;50.758;6.096;2023-03-30T10:27:55;12.10;99.90
43043;DHT22;28667;50.758;6.096;2023-03-30T10:30:24;12.10;99.90
43043;DHT22;28667;50.758;6.096;2023-03-30T10:32:58;12.00;99.90
43043;DHT22;28667;50.758;6.096;2023-03-30T10:35:34;12.00;99.90
43043;DHT22;28667;50.758;6.096;2023-03-30T10:38:15;12.10;99.90
43043;DHT22;28667;50.758;6.096;2023-03-30T10:41:10;12.20;99.90
43043;DHT22;28667;50.758;6.096;2023-03-30T10:43:41;12.20;99.90
43043;DHT22;28667;50.758;6.096;2023-03-30T10:46:19;12.20;99.90
43043;DHT22;28667;50.758;6.096;2023-03-30T11:04:35;11.70;99.90
43043;DHT22;28667;50.758;6.096;2023-03-30T11:10:04;11.60;99.90
43043;DHT22;28667;50.758;6.096;2023-03-30T11:12:40;11.60;99.90
43043;DHT22;28667;50.758;6.096;2023-03-30T11:15:18;11.70;99.90
43043;DHT22;28667;50.758;6.096;2023-03-30T11:21:00;12.20;99.90
43043;DHT22;28667;50.758;6.096;2023-03-30T11:24:05;12.40;99.90
43043;DHT22;28667;50.758;6.096;2023-03-30T11:27:05;12.50;99.90
43043;DHT22;28667;50.758;6.096;2023-03-30T11:30:03;12.60;99.90
43043;DHT22;28667;50.758;6.096;2023-03-30T11:38:27;13.00;99.90
43043;DHT22;28667;50.758;6.096;2023-03-30T11:41:05;13.00;99.90
43043;DHT22;28667;50.758;6.096;2023-03-30T11:43:35;13.10;99.90
43043;DHT22;28667;50.758;6.096;2023-03-30T11:51:56;14.00;99.90
43043;DHT22;28667;50.758;6.096;2023-03-30T11:58:00;14.50;99.90
43043;DHT22;28667;50.758;6.096;2023-03-30T12:03:58;14.70;99.90
43043;DHT22;28667;50.758;6.096;2023-03-30T12:06:57;15.00;99.90
43043;DHT22;28667;50.758;6.096;2023-03-30T12:09:50;15.00;99.90
43043;DHT22;28667;50.758;6.096;2023-03-30T12:12:31;15.00;99.90
43043;DHT22;28667;50.758;6.096;2023-03-30T12:20:45;15.10;99.90
43043;DHT22;28667;50.758;6.096;2023-03-30T12:23:40;15.30;99.90
43043;DHT22;28667;50.758;6.096;2023-03-30T12:26:26;15.50;99.90
43043;DHT22;28667;50.758;6.096;2023-03-30T12:29:10;15.80;99.90
43043;DHT22;28667;50.758;6.096;2023-03-30T12:34:14;15.90;99.90
43043;DHT22;28667;50.758;6.096;2023-03-30T12:36:48;15.90;99.90
43043;DHT22;28667;50.758;6.096;2023-03-30T12:39:30;15.80;99.90
43043;DHT22;28667;50.758;6.096;2023-03-30T12:51:21;15.40;99.90
43043;DHT22;28667;50.758;6.096;2023-03-30T13:05:37;12.80;99.90
43043;DHT22;28667;50.758;6.096;2023-03-30T13:08:21;12.70;99.90
43043;DHT22;28667;50.758;6.096;2023-03-30T13:11:18;12.70;99.90
43043;DHT22;28667;50.758;6.096;2023-03-30T13:22:23;13.20;99.90
43043;DHT22;28667;50.758;6.096;2023-03-30T13:25:27;13.30;99.90
43043;DHT22;28667;50.758;6.096;2023-03-30T13:27:59;13.30;99.90
43043;DHT22;28667;50.758;6.096;2023-03-30T13:30:28;13.30;99.90
43043;DHT22;28667;50.758;6.096;2023-03-30T13:36:02;13.40;99.90
43043;DHT22;28667;50.758;6.096;2023-03-30T13:39:07;13.50;99.90
43043;DHT22;28667;50.758;6.096;2023-03-30T13:42:13;13.60;99.90
43043;DHT22;28667;50.758;6.096;2023-03-30T13:45:15;13.80;99.90
43043;DHT22;28667;50.758;6.096;2023-03-30T13:50:36;14.00;99.90
43043;DHT22;28667;50.758;6.096;2023-03-30T13:53:12;14.10;99.90
43043;DHT22;28667;50.758;6.096;2023-03-30T13:55:48;14.20;99.90
43043;DHT22;28667;50.758;6.096;2023-03-30T13:58:36;14.30;99.90
43043;DHT22;28667;50.758;6.096;2023-03-30T14:01:11;14.50;99.90
43043;DHT22;28667;50.758;6.096;2023-03-30T14:03:56;14.70;99.90
43043;DHT22;28667;50.758;6.096;2023-03-30T14:06:27;14.90;99.90
43043;DHT22;28667;50.758;6.096;2023-03-30T14:09:12;15.00;99.90
43043;DHT22;28667;50.758;6.096;2023-03-30T14:11:43;15.10;99.90
43043;DHT22;28667;50.758;6.096;2023-03-30T14:14:48;15.30;99.90
43043;DHT22;28667;50.758;6.096;2023-03-30T14:17:22;15.40;99.90
43043;DHT22;28667;50.758;6.096;2023-03-30T14:23:10;15.50;99.90
43043;DHT22;28667;50.758;6.096;2023-03-30T14:25:40;15.60;99.90
43043;DHT22;28667;50.758;6.096;2023-03-30T14:28:25;15.70;99.90
43043;DHT22;28667;50.758;6.096;2023-03-30T14:31:19;15.80;99.90
43043;DHT22;28667;50.758;6.096;2023-03-30T14:33:47;16.00;99.90
43043;DHT22;28667;50.758;6.096;2023-03-30T14:36:21;16.00;99.90
43043;DHT22;28667;50.758;6.096;2023-03-30T14:38:51;15.90;99.90
43043;DHT22;28667;50.758;6.096;2023-03-30T14:41:29;15.60;99.90
43043;DHT22;28667;50.758;6.096;2023-03-30T14:44:05;15.40;99.90
43043;DHT22;28667;50.758;6.096;2023-03-30T14:46:58;15.40;99.90
43043;DHT22;28667;50.758;6.096;2023-03-30T14:49:31;15.30;99.90
43043;DHT22;28667;50.758;6.096;2023-03-30T14:54:44;15.40;99.90
43043;DHT22;28667;50.758;6.096;2023-03-30T14:57:16;15.50;99.90
43043;DHT22;28667;50.758;6.096;2023-03-30T14:59:59;15.60;99.90
43043;DHT22;28667;50.758;6.096;2023-03-30T15:02:31;15.50;99.90
43043;DHT22;28667;50.758;6.096;2023-03-30T15:05:00;15.60;99.90
43043;DHT22;28667;50.758;6.096;2023-03-30T15:07:32;15.60;99.90
43043;DHT22;28667;50.758;6.096;2023-03-30T15:09:59;15.50;99.90
43043;DHT22;28667;50.758;6.096;2023-03-30T15:12:46;15.50;99.90
43043;DHT22;28667;50.758;6.096;2023-03-30T15:15:17;15.60;99.90
43043;DHT22;28667;50.758;6.096;2023-03-30T15:17:47;15.60;99.90
43043;DHT22;28667;50.758;6.096;2023-03-30T15:20:22;15.50;99.90
43043;DHT22;28667;50.758;6.096;2023-03-30T15:23:17;15.50;99.90
43043;DHT22;28667;50.758;6.096;2023-03-30T15:25:48;15.40;99.90
43043;DHT22;28667;50.758;6.096;2023-03-30T15:28:20;15.40;99.90
43043;DHT22;28667;50.758;6.096;2023-03-30T15:30:52;15.30;99.90
43043;DHT22;28667;50.758;6.096;2023-03-30T15:33:44;15.20;99.90
43043;DHT22;28667;50.758;6.096;2023-03-30T15:36:33;15.00;99.90
43043;DHT22;28667;50.758;6.096;2023-03-30T15:39:17;14.90;99.90
43043;DHT22;28667;50.758;6.096;2023-03-30T15:42:03;14.90;99.90
43043;DHT22;28667;50.758;6.096;2023-03-30T15:44:38;14.90;99.90
43043;DHT22;28667;50.758;6.096;2023-03-30T15:47:12;14.60;99.90
43043;DHT22;28667;50.758;6.096;2023-03-30T15:49:48;14.50;99.90
43043;DHT22;28667;50.758;6.096;2023-03-30T15:52:34;14.30;99.90
43043;DHT22;28667;50.758;6.096;2023-03-30T15:55:11;14.20;99.90
43043;DHT22;28667;50.758;6.096;2023-03-30T15:57:46;14.20;99.90
43043;DHT22;28667;50.758;6.096;2023-03-30T16:00:27;14.10;99.90
43043;DHT22;28667;50.758;6.096;2023-03-30T16:02:58;14.10;99.90
43043;DHT22;28667;50.758;6.096;2023-03-30T16:05:31;14.10;99.90
43043;DHT22;28667;50.758;6.096;2023-03-30T16:08:02;14.00;99.90
43043;DHT22;28667;50.758;6.096;2023-03-30T16:10:31;14.10;99.90
43043;DHT22;28667;50.758;6.096;2023-03-30T16:13:01;14.10;99.90
43043;DHT22;28667;50.758;6.096;2023-03-30T16:15:32;14.10;99.90
43043;DHT22;28667;50.758;6.096;2023-03-30T16:18:09;14.20;99.90
43043;DHT22;28667;50.758;6.096;2023-03-30T16:20:38;14.30;99.90
43043;DHT22;28667;50.758;6.096;2023-03-30T16:23:16;14.40;99.90
43043;DHT22;28667;50.758;6.096;2023-03-30T16:26:00;14.50;99.90
43043;DHT22;28667;50.758;6.096;2023-03-30T16:28:29;14.50;99.90
43043;DHT22;28667;50.758;6.096;2023-03-30T16:30:59;14.60;99.90
43043;DHT22;28667;50.758;6.096;2023-03-30T16:33:34;14.60;99.90
43043;DHT22;28667;50.758;6.096;2023-03-30T16:36:06;14.60;99.90
43043;DHT22;28667;50.758;6.096;2023-03-30T16:38:34;14.50;99.90
43043;DHT22;28667;50.758;6.096;2023-03-30T16:41:05;14.40;99.90
43043;DHT22;28667;50.758;6.096;2023-03-30T16:43:37;14.20;99.90
43043;DHT22;28667;50.758;6.096;2023-03-30T16:46:05;14.10;99.90
43043;DHT22;28667;50.758;6.096;2023-03-30T16:48:44;14.10;99.90
43043;DHT22;28667;50.758;6.096;2023-03-30T16:51:14;14.10;99.90
43043;DHT22;28667;50.758;6.096;2023-03-30T16:53:46;14.20;99.90
43043;DHT22;28667;50.758;6.096;2023-03-30T16:56:17;14.10;99.90
43043;DHT22;28667;50.758;6.096;2023-03-30T16:58:49;14.10;99.90
43043;DHT22;28667;50.758;6.096;2023-03-30T17:01:32;14.00;99.90
43043;DHT22;28667;50.758;6.096;2023-03-30T17:03:58;13.80;99.90
43043;DHT22;28667;50.758;6.096;2023-03-30T17:06:36;13.60;99.90
43043;DHT22;28667;50.758;6.096;2023-03-30T17:09:02;13.50;99.90
43043;DHT22;28667;50.758;6.096;2023-03-30T17:11:36;13.40;99.90
43043;DHT22;28667;50.758;6.096;2023-03-30T17:14:05;13.30;99.90
43043;DHT22;28667;50.758;6.096;2023-03-30T17:16:33;13.30;99.90
43043;DHT22;28667;50.758;6.096;2023-03-30T17:19:14;13.20;99.90
43043;DHT22;28667;50.758;6.096;2023-03-30T17:21:43;13.20;99.90
43043;DHT22;28667;50.758;6.096;2023-03-30T17:24:16;13.10;99.90
43043;DHT22;28667;50.758;6.096;2023-03-30T17:26:47;13.10;99.90
43043;DHT22;28667;50.758;6.096;2023-03-30T17:29:16;13.10;99.90
43043;DHT22;28667;50.758;6.096;2023-03-30T17:31:48;13.10;99.90
43043;DHT22;28667;50.758;6.096;2023-03-30T17:34:17;13.00;99.90
43043;DHT22;28667;50.758;6.096;2023-03-30T17:36:49;13.10;99.90
43043;DHT22;28667;50.758;6.096;2023-03-30T17:39:17;13.10;99.90
43043;DHT22;28667;50.758;6.096;2023-03-30T17:41:45;13.10;99.90
43043;DHT22;28667;50.758;6.096;2023-03-30T17:44:11;13.00;99.90
43043;DHT22;28667;50.758;6.096;2023-03-30T17:46:42;13.00;99.90
43043;DHT22;28667;50.758;6.096;2023-03-30T17:49:15;13.00;99.90
43043;DHT22;28667;50.758;6.096;2023-03-30T17:51:43;12.80;99.90
43043;DHT22;28667;50.758;6.096;2023-03-30T17:54:17;12.60;99.90
43043;DHT22;28667;50.758;6.096;2023-03-30T17:56:47;12.50;99.90
43043;DHT22;28667;50.758;6.096;2023-03-30T17:59:18;12.30;99.90
43043;DHT22;28667;50.758;6.096;2023-03-30T18:01:46;12.20;99.90
43043;DHT22;28667;50.758;6.096;2023-03-30T18:04:12;12.10;99.90
43043;DHT22;28667;50.758;6.096;2023-03-30T18:06:56;11.90;99.90
43043;DHT22;28667;50.758;6.096;2023-03-30T18:09:46;11.80;99.90
43043;DHT22;28667;50.758;6.096;2023-03-30T18:12:19;11.80;99.90
43043;DHT22;28667;50.758;6.096;2023-03-30T18:14:51;11.70;99.90
43043;DHT22;28667;50.758;6.096;2023-03-30T18:17:22;11.70;99.90
43043;DHT22;28667;50.758;6.096;2023-03-30T18:19:51;11.60;99.90
43043;DHT22;28667;50.758;6.096;2023-03-30T18:22:24;11.50;99.90
43043;DHT22;28667;50.758;6.096;2023-03-30T18:24:57;11.40;99.90
43043;DHT22;28667;50.758;6.096;2023-03-30T18:27:52;11.40;99.90
43043;DHT22;28667;50.758;6.096;2023-03-30T18:30:32;11.30;99.90
43043;DHT22;28667;50.758;6.096;2023-03-30T18:33:07;11.40;99.90
43043;DHT22;28667;50.758;6.096;2023-03-30T18:35:36;11.40;99.90
43043;DHT22;28667;50.758;6.096;2023-03-30T18:38:11;11.40;99.90
43043;DHT22;28667;50.758;6.096;2023-03-30T18:40:39;11.50;99.90
43043;DHT22;28667;50.758;6.096;2023-03-30T18:43:17;11.60;99.90
43043;DHT22;28667;50.758;6.096;2023-03-30T18:45:49;11.60;99.90
43043;DHT22;28667;50.758;6.096;2023-03-30T18:48:18;11.50;99.90
43043;DHT22;28667;50.758;6.096;2023-03-30T18:50:51;11.40;99.90
43043;DHT22;28667;50.758;6.096;2023-03-30T18:53:20;11.20;99.90
43043;DHT22;28667;50.758;6.096;2023-03-30T18:55:53;11.20;99.90
43043;DHT22;28667;50.758;6.096;2023-03-30T18:58:26;11.20;99.90
43043;DHT22;28667;50.758;6.096;2023-03-30T19:01:01;11.10;99.90
43043;DHT22;28667;50.758;6.096;2023-03-30T19:03:28;11.00;99.90
43043;DHT22;28667;50.758;6.096;2023-03-30T19:05:57;10.90;99.90
43043;DHT22;28667;50.758;6.096;2023-03-30T19:08:26;10.80;99.90
43043;DHT22;28667;50.758;6.096;2023-03-30T19:10:55;10.70;99.90
43043;DHT22;28667;50.758;6.096;2023-03-30T19:13:24;10.70;99.90
43043;DHT22;28667;50.758;6.096;2023-03-30T19:15:54;10.60;99.90